createdAt,value
2018-05-12T00:01:19.159Z,96.40
2018-05-12T00:03:46.769Z,96.40
2018-05-12T00:06:14.190Z,96.50
2018-05-12T00:08:41.623Z,96.50
2018-05-12T00:11:09.060Z,96.50
2018-05-12T00:13:36.517Z,96.60
2018-05-12T00:16:03.962Z,96.60
2018-05-12T00:18:31.417Z,96.60
2018-05-12T00:20:58.875Z,96.50
2018-05-12T00:23:26.301Z,96.50
2018-05-12T00:25:53.730Z,96.50
2018-05-12T00:28:21.181Z,96.60
2018-05-12T00:30:48.616Z,96.60
2018-05-12T00:33:16.058Z,96.70
2018-05-12T00:35:43.487Z,96.70
2018-05-12T00:38:10.931Z,96.80
2018-05-12T00:40:38.383Z,96.90
2018-05-12T00:43:05.940Z,96.90
2018-05-12T00:45:33.270Z,96.90
2018-05-12T00:48:00.711Z,96.90
2018-05-12T00:50:28.155Z,96.80
2018-05-12T00:52:56.355Z,96.70
2018-05-12T00:55:23.827Z,96.70
2018-05-12T00:57:51.269Z,96.60
2018-05-12T01:00:19.479Z,96.80
2018-05-12T01:02:46.939Z,96.70
2018-05-12T01:05:14.382Z,96.80
2018-05-12T01:07:41.835Z,96.80
2018-05-12T01:10:09.264Z,96.80
2018-05-12T01:12:36.721Z,96.80
2018-05-12T01:15:04.152Z,96.80
2018-05-12T01:17:31.594Z,96.90
2018-05-12T01:19:59.061Z,96.80
2018-05-12T01:22:26.502Z,96.90
2018-05-12T01:24:53.939Z,97.00
2018-05-12T01:27:22.142Z,97.00
2018-05-12T01:29:49.568Z,96.90
2018-05-12T01:32:17.010Z,96.90
2018-05-12T01:34:44.439Z,96.90
2018-05-12T01:37:11.894Z,96.90
2018-05-12T01:39:39.343Z,96.90
2018-05-12T01:42:06.771Z,96.90
2018-05-12T01:44:34.983Z,97.00
2018-05-12T01:47:02.425Z,97.00
2018-05-12T01:49:29.908Z,97.00
2018-05-12T01:51:57.352Z,97.00
2018-05-12T01:54:24.773Z,97.10
2018-05-12T01:56:52.269Z,97.00
2018-05-12T01:59:19.690Z,97.00
2018-05-12T02:01:47.132Z,97.00
2018-05-12T02:04:14.831Z,97.00
2018-05-12T02:06:42.264Z,97.00
2018-05-12T02:09:09.694Z,97.10
2018-05-12T02:11:37.154Z,97.10
2018-05-12T02:14:04.584Z,97.20
2018-05-12T02:16:32.035Z,97.10
2018-05-12T02:18:59.484Z,97.10
2018-05-12T02:21:26.922Z,97.10
2018-05-12T02:23:54.346Z,97.10
2018-05-12T02:26:22.312Z,97.20
2018-05-12T02:28:49.759Z,97.20
2018-05-12T02:31:17.181Z,97.20
2018-05-12T02:33:44.663Z,97.20
2018-05-12T02:36:12.092Z,97.20
2018-05-12T02:38:39.540Z,97.30
2018-05-12T02:41:06.985Z,97.30
2018-05-12T02:43:34.425Z,97.30
2018-05-12T02:46:01.880Z,97.30
2018-05-12T02:48:29.323Z,97.30
2018-05-12T02:50:56.793Z,97.30
2018-05-12T02:53:24.251Z,97.30
2018-05-12T02:55:51.700Z,97.30
2018-05-12T02:58:19.127Z,97.40
2018-05-12T03:00:46.566Z,97.40
2018-05-12T03:03:14.007Z,97.40
2018-05-12T03:05:42.249Z,97.40
2018-05-12T03:08:09.696Z,97.40
2018-05-12T03:10:37.136Z,97.40
2018-05-12T03:13:04.558Z,97.40
2018-05-12T03:15:32.002Z,97.40
2018-05-12T03:17:59.440Z,97.40
2018-05-12T03:20:27.647Z,97.40
2018-05-12T03:22:55.104Z,97.30
2018-05-12T03:25:22.555Z,97.30
2018-05-12T03:27:49.987Z,97.30
2018-05-12T03:30:17.430Z,97.30
2018-05-12T03:32:44.857Z,97.40
2018-05-12T03:35:12.291Z,97.40
2018-05-12T03:37:39.726Z,97.40
2018-05-12T03:40:07.171Z,97.40
2018-05-12T03:42:34.629Z,97.40
2018-05-12T03:45:02.044Z,97.50
2018-05-12T03:47:29.488Z,97.50
2018-05-12T03:49:56.930Z,97.60
2018-05-12T03:52:24.386Z,97.80
2018-05-12T03:54:51.816Z,98.00
2018-05-12T03:57:19.251Z,98.20
2018-05-12T03:59:46.690Z,98.30
2018-05-12T04:02:14.130Z,98.40
2018-05-12T04:04:53.295Z,98.50
2018-05-12T04:07:32.523Z,98.60
2018-05-12T04:10:11.757Z,98.80
2018-05-12T04:12:40.067Z,98.80
2018-05-12T04:15:07.513Z,98.90
2018-05-12T04:17:34.934Z,98.90
2018-05-12T04:20:02.393Z,98.90
2018-05-12T04:22:29.818Z,98.90
2018-05-12T04:24:57.280Z,98.90
2018-05-12T04:27:24.708Z,98.80
2018-05-12T04:29:52.165Z,98.80
2018-05-12T04:32:19.598Z,98.70
2018-05-12T04:34:47.024Z,98.60
2018-05-12T04:37:14.464Z,98.60
2018-05-12T04:39:41.905Z,98.50
2018-05-12T04:42:09.347Z,98.50
2018-05-12T04:44:37.539Z,98.20
2018-05-12T04:47:05.747Z,98.00
2018-05-12T04:49:33.227Z,97.90
2018-05-12T04:52:00.613Z,97.60
2018-05-12T04:54:28.065Z,97.10
2018-05-12T04:56:55.496Z,96.80
2018-05-12T04:59:22.924Z,97.00
2018-05-12T05:01:50.385Z,96.50
2018-05-12T05:04:17.817Z,96.40
2018-05-12T05:06:45.267Z,96.10
2018-05-12T05:09:12.711Z,95.70
2018-05-12T05:11:40.152Z,95.30
2018-05-12T05:14:07.605Z,95.00
2018-05-12T05:16:35.052Z,94.60
2018-05-12T05:19:02.499Z,94.60
2018-05-12T05:21:29.952Z,94.60
2018-05-12T05:23:57.385Z,94.50
2018-05-12T05:26:24.859Z,94.60
2018-05-12T05:28:52.298Z,94.50
2018-05-12T05:31:19.764Z,94.50
2018-05-12T05:33:47.188Z,94.50
2018-05-12T05:36:14.630Z,94.30
2018-05-12T05:38:42.075Z,93.90
2018-05-12T05:41:09.531Z,93.70
2018-05-12T05:43:36.960Z,93.30
2018-05-12T05:46:04.414Z,93.00
2018-05-12T05:48:31.894Z,93.00
2018-05-12T05:50:59.343Z,92.60
2018-05-12T05:53:27.561Z,92.20
2018-05-12T05:55:54.994Z,92.20
2018-05-12T05:58:22.450Z,92.10
2018-05-12T06:00:49.887Z,92.10
2018-05-12T06:03:17.327Z,92.10
2018-05-12T06:05:44.770Z,92.00
2018-05-12T06:08:12.203Z,91.60
2018-05-12T06:10:39.659Z,91.50
2018-05-12T06:13:07.091Z,91.30
2018-05-12T06:15:34.540Z,91.10
2018-05-12T06:18:02.032Z,91.00
2018-05-12T06:20:29.435Z,90.90
2018-05-12T06:22:56.911Z,90.80
2018-05-12T06:25:24.346Z,90.60
2018-05-12T06:27:51.876Z,90.30
2018-05-12T06:30:19.239Z,90.20
2018-05-12T06:32:46.725Z,90.10
2018-05-12T06:35:14.163Z,89.20
2018-05-12T06:37:41.631Z,88.30
2018-05-12T06:40:09.090Z,86.90
2018-05-12T06:42:36.543Z,86.20
2018-05-12T06:45:04.035Z,85.10
2018-05-12T06:47:31.479Z,83.60
2018-05-12T06:49:58.911Z,82.10
2018-05-12T06:52:27.207Z,80.40
2018-05-12T06:54:54.646Z,80.50
2018-05-12T06:57:22.142Z,80.20
2018-05-12T06:59:49.570Z,78.60
2018-05-12T07:02:17.035Z,78.00
2018-05-12T07:04:46.384Z,76.00
2018-05-12T07:07:13.822Z,75.70
2018-05-12T07:09:41.274Z,75.30
2018-05-12T07:12:08.727Z,73.20
2018-05-12T07:14:36.182Z,72.50
2018-05-12T07:17:03.629Z,70.90
2018-05-12T07:19:31.927Z,69.10
2018-05-12T07:21:59.278Z,69.10
2018-05-12T07:24:26.727Z,68.00
2018-05-12T07:26:54.183Z,66.20
2018-05-12T07:29:21.646Z,65.60
2018-05-12T07:31:49.078Z,65.60
2018-05-12T07:34:16.517Z,65.30
2018-05-12T07:36:44.000Z,63.80
2018-05-12T07:39:11.526Z,62.60
2018-05-12T07:41:38.955Z,61.40
2018-05-12T07:44:06.411Z,59.80
2018-05-12T07:46:33.869Z,60.10
2018-05-12T07:49:04.981Z,59.00
2018-05-12T07:51:32.645Z,58.80
2018-05-12T07:54:00.027Z,59.00
2018-05-12T07:56:27.470Z,57.70
2018-05-12T07:58:54.924Z,58.40
2018-05-12T08:01:23.107Z,56.90
2018-05-12T08:03:50.546Z,56.20
2018-05-12T08:06:17.998Z,55.80
2018-05-12T08:08:45.459Z,55.30
2018-05-12T08:11:12.901Z,55.30
2018-05-12T08:13:40.372Z,54.30
2018-05-12T08:16:07.851Z,53.10
2018-05-12T08:18:35.282Z,52.60
2018-05-12T08:21:03.478Z,54.70
2018-05-12T08:23:30.956Z,54.60
2018-05-12T08:25:58.451Z,54.20
2018-05-12T08:28:25.860Z,54.50
2018-05-12T08:30:53.299Z,55.80
2018-05-12T08:33:20.747Z,55.30
2018-05-12T08:35:48.847Z,54.30
2018-05-12T08:38:16.307Z,54.10
2018-05-12T08:40:43.759Z,50.90
2018-05-12T08:43:11.206Z,50.70
2018-05-12T08:45:38.666Z,49.10
2018-05-12T08:48:06.090Z,49.40
2018-05-12T08:50:33.566Z,48.90
2018-05-12T08:53:01.027Z,46.70
2018-05-12T08:55:28.459Z,46.40
2018-05-12T08:57:55.966Z,45.90
2018-05-12T09:00:23.391Z,46.50
2018-05-12T09:02:50.870Z,42.70
2018-05-12T09:05:18.327Z,42.80
2018-05-12T09:07:45.776Z,42.40
2018-05-12T09:10:13.234Z,42.50
2018-05-12T09:12:41.441Z,40.70
2018-05-12T09:15:08.880Z,40.60
2018-05-12T09:17:37.099Z,40.70
2018-05-12T09:20:04.543Z,40.60
2018-05-12T09:22:32.000Z,40.20
2018-05-12T09:24:59.432Z,40.00
2018-05-12T09:27:26.875Z,40.50
2018-05-12T09:29:54.333Z,39.40
2018-05-12T09:32:21.771Z,38.80
2018-05-12T09:34:49.223Z,37.00
2018-05-12T09:37:16.777Z,36.80
2018-05-12T09:39:44.131Z,36.80
2018-05-12T09:42:11.605Z,35.80
2018-05-12T09:44:39.765Z,37.20
2018-05-12T09:47:07.231Z,37.20
2018-05-12T09:49:34.667Z,36.00
2018-05-12T09:52:02.126Z,36.40
2018-05-12T09:54:29.579Z,37.50
2018-05-12T09:56:57.271Z,38.10
2018-05-12T09:59:24.808Z,37.50
2018-05-12T10:01:52.196Z,37.20
2018-05-12T10:04:19.655Z,36.20
2018-05-12T10:06:47.091Z,36.00
2018-05-12T10:09:14.564Z,36.20
2018-05-12T10:11:42.058Z,35.90
2018-05-12T10:14:10.302Z,35.40
2018-05-12T10:16:37.748Z,35.40
2018-05-12T10:19:05.187Z,35.90
2018-05-12T10:21:32.638Z,35.80
2018-05-12T10:24:00.843Z,36.60
2018-05-12T10:26:29.076Z,36.70
2018-05-12T10:28:56.520Z,36.70
2018-05-12T10:31:23.959Z,36.30
2018-05-12T10:33:52.194Z,36.20
2018-05-12T10:36:19.654Z,36.10
2018-05-12T10:38:47.137Z,35.10
2018-05-12T10:41:14.530Z,34.80
2018-05-12T10:43:41.997Z,34.30
2018-05-12T10:46:09.427Z,34.00
2018-05-12T10:48:36.856Z,35.00
2018-05-12T10:51:04.316Z,34.20
2018-05-12T10:53:31.770Z,33.90
2018-05-12T10:56:00.017Z,34.00
2018-05-12T10:58:27.450Z,34.00
2018-05-12T11:00:54.903Z,33.40
2018-05-12T11:03:22.346Z,33.40
2018-05-12T11:05:49.791Z,33.60
2018-05-12T11:08:17.221Z,34.40
2018-05-12T11:10:44.679Z,32.50
2018-05-12T11:13:12.161Z,33.40
2018-05-12T11:15:39.635Z,33.00
2018-05-12T11:18:07.106Z,34.00
2018-05-12T11:20:34.543Z,32.90
2018-05-12T11:23:01.998Z,33.40
2018-05-12T11:25:29.435Z,32.90
2018-05-12T11:27:56.902Z,33.10
2018-05-12T11:30:24.334Z,33.60
2018-05-12T11:32:51.856Z,33.10
2018-05-12T11:35:19.292Z,32.70
2018-05-12T11:37:46.765Z,32.80
2018-05-12T11:40:14.202Z,34.50
2018-05-12T11:42:41.650Z,31.60
2018-05-12T11:45:09.143Z,31.80
2018-05-12T11:47:36.615Z,31.20
2018-05-12T11:50:04.051Z,32.50
2018-05-12T11:52:32.272Z,32.50
2018-05-12T11:55:01.036Z,32.50
2018-05-12T11:57:28.499Z,33.10
2018-05-12T11:59:55.929Z,33.00
2018-05-12T12:02:23.479Z,32.80
2018-05-12T12:04:50.820Z,33.10
2018-05-12T12:07:18.366Z,32.60
2018-05-12T12:09:45.818Z,31.00
2018-05-12T12:12:13.256Z,32.10
2018-05-12T12:14:41.488Z,30.00
2018-05-12T12:17:08.937Z,30.00
2018-05-12T12:19:36.368Z,29.70
2018-05-12T12:22:03.828Z,29.40
2018-05-12T12:24:31.261Z,28.90
2018-05-12T12:26:58.720Z,29.60
2018-05-12T12:29:26.331Z,29.40
2018-05-12T12:31:54.850Z,29.40
2018-05-12T12:34:22.328Z,30.00
2018-05-12T12:36:49.777Z,30.80
2018-05-12T12:39:17.328Z,32.50
2018-05-12T12:41:44.748Z,32.00
2018-05-12T12:44:12.191Z,29.60
2018-05-12T12:46:40.412Z,28.40
2018-05-12T12:49:08.734Z,28.90
2018-05-12T12:51:36.324Z,29.00
2018-05-12T12:54:03.772Z,28.40
2018-05-12T12:56:31.194Z,28.50
2018-05-12T12:58:59.407Z,27.80
2018-05-12T13:01:26.865Z,27.70
2018-05-12T13:03:54.479Z,29.00
2018-05-12T13:06:21.959Z,29.10
2018-05-12T13:08:49.431Z,29.40
2018-05-12T13:11:17.208Z,28.60
2018-05-12T13:13:44.674Z,28.00
2018-05-12T13:16:12.146Z,28.00
2018-05-12T13:18:40.631Z,25.70
2018-05-12T13:21:08.098Z,25.70
2018-05-12T13:23:35.664Z,25.00
2018-05-12T13:26:03.106Z,25.60
2018-05-12T13:28:30.547Z,24.50
2018-05-12T13:30:58.059Z,24.40
2018-05-12T13:33:25.550Z,24.50
2018-05-12T13:35:52.972Z,25.10
2018-05-12T13:38:20.402Z,25.30
2018-05-12T13:40:48.086Z,24.90
2018-05-12T13:43:15.523Z,24.70
2018-05-12T13:45:43.000Z,24.30
2018-05-12T13:48:10.394Z,24.60
2018-05-12T13:50:37.871Z,24.70
2018-05-12T13:53:05.307Z,24.90
2018-05-12T13:55:32.831Z,24.90
2018-05-12T13:58:00.279Z,22.90
2018-05-12T14:00:27.734Z,22.40
2018-05-12T14:02:55.172Z,22.60
2018-05-12T14:05:22.614Z,24.00
2018-05-12T14:07:50.048Z,24.00
2018-05-12T14:10:17.511Z,24.50
2018-05-12T14:12:45.707Z,23.40
2018-05-12T14:15:13.574Z,23.40
2018-05-12T14:17:41.007Z,23.40
2018-05-12T14:20:08.439Z,23.70
2018-05-12T14:22:35.899Z,24.00
2018-05-12T14:25:03.374Z,23.90
2018-05-12T14:27:30.812Z,24.00
2018-05-12T14:29:58.258Z,25.60
2018-05-12T14:32:25.754Z,24.70
2018-05-12T14:34:53.164Z,23.90
2018-05-12T14:37:20.871Z,23.10
2018-05-12T14:39:48.476Z,22.80
2018-05-12T14:42:15.911Z,23.30
2018-05-12T14:44:43.381Z,24.10
2018-05-12T14:47:10.826Z,23.40
2018-05-12T14:49:38.251Z,23.50
2018-05-12T14:52:06.624Z,23.10
2018-05-12T14:54:34.066Z,22.40
2018-05-12T14:57:01.520Z,22.40
2018-05-12T14:59:29.043Z,21.80
2018-05-12T15:01:56.461Z,22.00
2018-05-12T15:04:23.908Z,21.50
2018-05-12T15:06:51.371Z,22.40
2018-05-12T15:09:18.819Z,21.90
2018-05-12T15:11:47.033Z,23.10
2018-05-12T15:14:14.472Z,23.10
2018-05-12T15:16:42.685Z,25.10
2018-05-12T15:19:10.116Z,25.10
2018-05-12T15:21:37.556Z,25.40
2018-05-12T15:24:05.002Z,26.60
2018-05-12T15:26:32.443Z,26.80
2018-05-12T15:28:59.997Z,27.40
2018-05-12T15:31:27.411Z,27.80
2018-05-12T15:33:54.851Z,27.10
2018-05-12T15:36:22.369Z,27.00
2018-05-12T15:38:51.843Z,25.40
2018-05-12T15:41:19.299Z,25.40
2018-05-12T15:43:46.792Z,25.40
2018-05-12T15:46:14.508Z,25.60
2018-05-12T15:48:42.724Z,27.20
2018-05-12T15:51:10.177Z,27.20
2018-05-12T15:53:38.397Z,26.70
2018-05-12T15:56:05.876Z,26.70
2018-05-12T15:58:33.346Z,28.10
2018-05-12T16:01:00.828Z,27.40
2018-05-12T16:03:28.330Z,27.70
2018-05-12T16:05:55.764Z,27.70
2018-05-12T16:08:23.215Z,27.30
2018-05-12T16:10:51.621Z,27.40
2018-05-12T16:13:19.056Z,27.70
2018-05-12T16:15:46.492Z,28.10
2018-05-12T16:18:13.936Z,28.60
2018-05-12T16:20:42.143Z,28.20
2018-05-12T16:23:09.590Z,28.20
2018-05-12T16:25:37.048Z,28.80
2018-05-12T16:28:04.497Z,28.50
2018-05-12T16:30:31.931Z,28.70
2018-05-12T16:32:59.390Z,28.50
2018-05-12T16:35:26.847Z,29.30
2018-05-12T16:37:54.270Z,29.60
2018-05-12T16:40:21.718Z,30.10
2018-05-12T16:42:49.164Z,31.10
2018-05-12T16:45:16.601Z,30.80
2018-05-12T16:47:44.070Z,31.30
2018-05-12T16:50:11.502Z,32.30
2018-05-12T16:52:38.977Z,32.90
2018-05-12T16:55:06.448Z,33.10
2018-05-12T16:57:33.878Z,34.20
2018-05-12T17:00:01.328Z,34.40
2018-05-12T17:02:29.046Z,34.90
2018-05-12T17:04:56.391Z,35.30
2018-05-12T17:07:23.822Z,36.10
2018-05-12T17:09:51.283Z,36.50
2018-05-12T17:12:18.748Z,36.10
2018-05-12T17:14:46.155Z,36.90
2018-05-12T17:17:13.587Z,37.30
2018-05-12T17:19:41.027Z,37.10
2018-05-12T17:22:08.754Z,37.40
2018-05-12T17:24:36.193Z,38.00
2018-05-12T17:27:03.626Z,37.90
2018-05-12T17:29:31.376Z,38.50
2018-05-12T17:31:58.828Z,38.80
2018-05-12T17:34:26.245Z,39.00
2018-05-12T17:36:53.878Z,39.40
2018-05-12T17:39:21.298Z,39.40
2018-05-12T17:41:48.735Z,39.80
2018-05-12T17:44:16.569Z,40.10
2018-05-12T17:46:43.938Z,40.10
2018-05-12T17:49:11.382Z,40.30
2018-05-12T17:51:38.887Z,40.80
2018-05-12T17:54:06.322Z,41.20
2018-05-12T17:56:33.781Z,42.00
2018-05-12T17:59:01.210Z,41.80
2018-05-12T18:01:28.643Z,42.50
2018-05-12T18:03:56.349Z,42.90
2018-05-12T18:06:23.772Z,42.50
2018-05-12T18:08:51.261Z,43.40
2018-05-12T18:11:18.978Z,43.20
2018-05-12T18:13:46.405Z,43.20
2018-05-12T18:16:13.839Z,43.30
2018-05-12T18:18:41.329Z,43.60
2018-05-12T18:21:08.751Z,43.70
2018-05-12T18:23:36.462Z,45.10
2018-05-12T18:26:03.890Z,46.10
2018-05-12T18:28:31.330Z,47.00
2018-05-12T18:30:59.547Z,48.50
2018-05-12T18:33:26.974Z,48.40
2018-05-12T18:35:54.729Z,49.40
2018-05-12T18:38:23.095Z,49.90
2018-05-12T18:40:50.532Z,50.60
2018-05-12T18:43:19.005Z,51.80
2018-05-12T18:45:48.258Z,52.50
2018-05-12T18:48:15.713Z,52.50
2018-05-12T18:50:44.009Z,53.10
2018-05-12T18:53:12.578Z,53.10
2018-05-12T18:55:40.007Z,53.40
2018-05-12T18:58:07.501Z,54.00
2018-05-12T19:00:35.095Z,54.00
2018-05-12T19:03:02.619Z,53.70
2018-05-12T19:05:31.794Z,54.30
2018-05-12T19:08:01.188Z,54.20
2018-05-12T19:10:28.801Z,54.70
2018-05-12T19:12:56.238Z,54.60
2018-05-12T19:15:23.981Z,54.70
2018-05-12T19:17:51.471Z,55.20
2018-05-12T19:20:18.906Z,56.30
2018-05-12T19:22:46.340Z,56.40
2018-05-12T19:25:13.779Z,56.90
2018-05-12T19:27:41.228Z,57.30
2018-05-12T19:30:08.667Z,57.50
2018-05-12T19:32:36.167Z,58.40
2018-05-12T19:35:03.763Z,58.90
2018-05-12T19:37:31.235Z,59.20
2018-05-12T19:39:59.435Z,59.40
2018-05-12T19:42:27.186Z,59.50
2018-05-12T19:44:54.645Z,60.30
2018-05-12T19:47:23.140Z,61.00
2018-05-12T19:49:50.583Z,62.00
2018-05-12T19:52:18.262Z,61.70
2018-05-12T19:54:45.690Z,61.30
2018-05-12T19:57:13.128Z,60.50
2018-05-12T19:59:40.963Z,61.40
2018-05-12T20:02:08.416Z,61.90
2018-05-12T20:04:35.875Z,62.20
2018-05-12T20:07:03.316Z,64.10
2018-05-12T20:09:30.750Z,65.00
2018-05-12T20:11:58.230Z,65.20
2018-05-12T20:14:25.664Z,64.50
2018-05-12T20:16:53.118Z,63.70
2018-05-12T20:19:20.545Z,60.00
2018-05-12T20:21:47.979Z,61.20
2018-05-12T20:24:16.176Z,58.70
2018-05-12T20:26:44.533Z,58.70
2018-05-12T20:29:11.959Z,58.80
2018-05-12T20:31:39.402Z,58.80
2018-05-12T20:34:07.051Z,59.40
2018-05-12T20:36:34.533Z,61.30
2018-05-12T20:39:01.971Z,61.90
2018-05-12T20:41:29.479Z,62.70
2018-05-12T20:43:56.902Z,63.80
2018-05-12T20:46:24.339Z,63.60
2018-05-12T20:48:52.098Z,63.70
2018-05-12T20:51:20.292Z,60.70
2018-05-12T20:53:47.736Z,60.70
2018-05-12T20:56:15.935Z,60.30
2018-05-12T20:58:43.360Z,60.20
2018-05-12T21:01:10.799Z,61.00
2018-05-12T21:03:38.247Z,59.80
2018-05-12T21:06:05.676Z,59.80
2018-05-12T21:08:33.879Z,60.00
2018-05-12T21:11:01.317Z,60.10
2018-05-12T21:13:28.771Z,60.10
2018-05-12T21:15:56.194Z,60.40
2018-05-12T21:18:23.941Z,61.30
2018-05-12T21:20:52.323Z,61.10
2018-05-12T21:23:20.514Z,61.90
2018-05-12T21:25:48.008Z,61.80
2018-05-12T21:28:15.467Z,62.20
2018-05-12T21:30:42.914Z,62.20
2018-05-12T21:33:10.370Z,61.30
2018-05-12T21:35:37.826Z,61.50
2018-05-12T21:38:05.331Z,62.40
2018-05-12T21:40:32.722Z,64.10
2018-05-12T21:43:00.152Z,65.00
2018-05-12T21:45:27.582Z,65.70
2018-05-12T21:47:55.799Z,66.90
2018-05-12T21:50:24.007Z,67.50
2018-05-12T21:52:51.437Z,67.50
2018-05-12T21:55:18.886Z,68.10
2018-05-12T21:57:46.319Z,68.40
2018-05-12T22:00:13.751Z,68.60
2018-05-12T22:02:41.206Z,69.70
2018-05-12T22:05:09.642Z,70.50
2018-05-12T22:07:37.847Z,71.30
2018-05-12T22:10:05.313Z,71.30
2018-05-12T22:12:32.742Z,72.30
2018-05-12T22:15:00.180Z,73.10
2018-05-12T22:17:27.626Z,73.30
2018-05-12T22:19:55.052Z,75.30
2018-05-12T22:22:22.488Z,77.00
2018-05-12T22:24:49.916Z,77.70
2018-05-12T22:27:18.168Z,79.20
2018-05-12T22:29:45.910Z,79.10
2018-05-12T22:32:14.345Z,79.70
2018-05-12T22:34:42.550Z,81.30
2018-05-12T22:37:10.320Z,81.20
2018-05-12T22:39:37.750Z,82.00
2018-05-12T22:42:05.187Z,81.70
2018-05-12T22:44:32.633Z,81.30
2018-05-12T22:47:00.075Z,81.40
2018-05-12T22:49:27.514Z,81.90
2018-05-12T22:51:54.966Z,81.90
2018-05-12T22:54:22.410Z,81.90
2018-05-12T22:56:50.628Z,83.00
2018-05-12T22:59:18.088Z,82.90
2018-05-12T23:01:45.520Z,82.90
2018-05-12T23:04:12.958Z,83.00
2018-05-12T23:06:40.414Z,83.10
2018-05-12T23:09:07.847Z,83.30
2018-05-12T23:11:35.278Z,83.90
2018-05-12T23:14:03.032Z,85.60
2018-05-12T23:16:30.463Z,86.30
2018-05-12T23:18:57.915Z,86.60
2018-05-12T23:21:25.367Z,87.00
2018-05-12T23:23:52.801Z,87.50
2018-05-12T23:26:20.254Z,87.80
2018-05-12T23:28:47.682Z,88.20
2018-05-12T23:31:15.380Z,88.50
2018-05-12T23:33:42.812Z,88.80
2018-05-12T23:36:11.044Z,89.60
2018-05-12T23:38:38.471Z,89.80
2018-05-12T23:41:05.914Z,89.40
2018-05-12T23:43:33.358Z,90.00
2018-05-12T23:46:01.750Z,90.00
2018-05-12T23:48:29.963Z,90.20
2018-05-12T23:50:57.445Z,90.20
2018-05-12T23:53:25.647Z,90.80
2018-05-12T23:55:53.070Z,90.80
2018-05-12T23:58:20.519Z,91.10
